createdAt,value
2022-11-22T00:00:13.657Z,5.11
2022-11-22T00:02:42.563Z,5.17
2022-11-22T00:05:11.696Z,5.21
2022-11-22T00:07:41.348Z,5.21
2022-11-22T00:10:11.350Z,5.21
2022-11-22T00:12:42.601Z,5.02
2022-11-22T00:15:13.774Z,5.33
2022-11-22T00:17:42.655Z,5.17
2022-11-22T00:20:12.441Z,5.38
2022-11-22T00:22:45.029Z,5.21
2022-11-22T00:25:14.188Z,5.23
2022-11-22T00:27:43.697Z,5.12
2022-11-22T00:30:14.169Z,5.20
2022-11-22T00:32:43.057Z,5.32
2022-11-22T00:35:12.830Z,5.35
2022-11-22T00:37:41.789Z,5.19
2022-11-22T00:40:11.524Z,5.21
2022-11-22T00:42:40.415Z,5.34
2022-11-22T00:45:10.291Z,5.62
2022-11-22T00:47:40.542Z,5.34
2022-11-22T00:50:09.841Z,5.35
2022-11-22T00:52:38.866Z,5.34
2022-11-22T00:55:08.893Z,5.28
2022-11-22T00:57:37.764Z,5.42
2022-11-22T01:00:07.938Z,5.36
2022-11-22T01:02:41.598Z,5.32
2022-11-22T01:05:10.762Z,5.63
2022-11-22T01:07:39.699Z,5.40
2022-11-22T01:10:09.272Z,5.39
2022-11-22T01:12:38.211Z,5.55
2022-11-22T01:15:07.879Z,5.49
2022-11-22T01:17:37.006Z,5.61
2022-11-22T01:20:08.102Z,5.48
2022-11-22T01:22:36.986Z,5.49
2022-11-22T01:25:06.129Z,5.52
2022-11-22T01:27:35.023Z,5.50
2022-11-22T01:30:04.076Z,5.66
2022-11-22T01:32:32.946Z,5.58
2022-11-22T01:35:02.299Z,5.54
2022-11-22T01:37:32.574Z,5.68
2022-11-22T01:40:01.436Z,5.54
2022-11-22T01:42:43.909Z,5.58
2022-11-22T01:45:41.109Z,5.73
2022-11-22T01:48:15.409Z,5.53
2022-11-22T01:50:45.618Z,5.58
2022-11-22T01:53:18.401Z,5.54
2022-11-22T01:55:47.274Z,5.58
2022-11-22T01:58:16.199Z,5.63
2022-11-22T02:00:45.463Z,5.80
2022-11-22T02:03:14.595Z,5.67
2022-11-22T02:05:43.451Z,5.65
2022-11-22T02:08:16.186Z,5.73
2022-11-22T02:10:48.267Z,5.76
2022-11-22T02:13:17.283Z,5.78
2022-11-22T02:15:46.174Z,5.72
2022-11-22T02:18:15.130Z,5.71
2022-11-22T02:20:44.383Z,5.61
2022-11-22T02:23:15.801Z,5.80
2022-11-22T02:25:53.717Z,5.64
2022-11-22T02:28:24.903Z,5.75
2022-11-22T02:30:54.138Z,5.69
2022-11-22T02:33:23.038Z,5.78
2022-11-22T02:35:52.090Z,5.84
2022-11-22T02:38:23.034Z,5.99
2022-11-22T02:40:56.436Z,5.79
2022-11-22T02:43:26.549Z,5.74
2022-11-22T02:45:55.724Z,5.83
2022-11-22T02:48:24.681Z,5.88
2022-11-22T02:50:53.576Z,5.87
2022-11-22T02:53:22.740Z,6.03
2022-11-22T02:55:53.031Z,6.15
2022-11-22T02:58:21.888Z,6.07
2022-11-22T03:00:53.053Z,6.13
2022-11-22T03:03:21.950Z,5.99
2022-11-22T03:05:51.210Z,6.04
2022-11-22T03:08:20.070Z,6.14
2022-11-22T03:10:51.271Z,6.28
2022-11-22T03:13:21.585Z,6.06
2022-11-22T03:15:50.440Z,6.15
2022-11-22T03:18:19.876Z,6.09
2022-11-22T03:20:49.732Z,6.00
2022-11-22T03:23:18.595Z,6.05
2022-11-22T03:25:47.446Z,6.08
2022-11-22T03:28:16.718Z,6.09
2022-11-22T03:30:47.989Z,6.12
2022-11-22T03:33:17.107Z,6.14
2022-11-22T03:35:46.163Z,6.09
2022-11-22T03:38:16.361Z,6.06
2022-11-22T03:40:48.216Z,6.08
2022-11-22T03:43:17.408Z,5.99
2022-11-22T03:45:48.156Z,6.06
2022-11-22T03:48:18.074Z,6.08
2022-11-22T03:50:46.957Z,6.10
2022-11-22T03:53:16.180Z,6.15
2022-11-22T03:55:45.334Z,6.01
2022-11-22T03:58:14.275Z,5.91
2022-11-22T04:00:43.100Z,5.88
2022-11-22T04:03:13.368Z,5.82
2022-11-22T04:05:45.172Z,5.73
2022-11-22T04:08:15.132Z,5.77
2022-11-22T04:10:44.050Z,5.79
2022-11-22T04:13:14.523Z,5.70
2022-11-22T04:15:46.857Z,5.72
2022-11-22T04:18:17.169Z,5.75
2022-11-22T04:21:00.667Z,5.69
2022-11-22T04:23:34.076Z,5.75
2022-11-22T04:26:02.899Z,5.79
2022-11-22T04:29:01.407Z,5.81
2022-11-22T04:31:34.473Z,5.77
2022-11-22T04:34:04.806Z,5.76
2022-11-22T04:36:33.728Z,5.65
2022-11-22T04:39:02.927Z,5.55
2022-11-22T04:41:31.778Z,5.66
2022-11-22T04:44:14.254Z,5.60
2022-11-22T04:46:43.411Z,5.75
2022-11-22T04:49:13.800Z,5.50
2022-11-22T04:51:56.581Z,5.53
2022-11-22T04:54:25.569Z,5.40
2022-11-22T04:56:54.425Z,5.36
2022-11-22T04:59:23.291Z,5.29
2022-11-22T05:01:52.192Z,5.20
2022-11-22T05:04:22.419Z,5.24
2022-11-22T05:06:51.857Z,5.28
2022-11-22T05:09:20.812Z,5.18
2022-11-22T05:11:49.975Z,5.16
2022-11-22T05:14:18.834Z,5.22
2022-11-22T05:16:47.692Z,5.19
2022-11-22T05:19:16.559Z,5.18
2022-11-22T05:21:47.149Z,5.13
2022-11-22T05:24:15.105Z,5.07
2022-11-22T05:26:44.002Z,4.99
2022-11-22T05:29:12.841Z,4.99
2022-11-22T05:31:46.881Z,5.03
2022-11-22T05:34:18.912Z,5.00
2022-11-22T05:36:49.182Z,4.90
2022-11-22T05:39:18.424Z,4.84
2022-11-22T05:41:56.315Z,4.98
2022-11-22T05:44:25.536Z,4.95
2022-11-22T05:46:54.691Z,4.89
2022-11-22T05:49:23.546Z,4.84
2022-11-22T05:51:54.024Z,4.85
2022-11-22T05:54:22.874Z,4.94
2022-11-22T05:56:51.785Z,4.90
2022-11-22T05:59:20.757Z,4.85
2022-11-22T06:01:49.770Z,4.85
2022-11-22T06:04:19.134Z,4.87
2022-11-22T06:06:48.882Z,4.80
2022-11-22T06:09:19.168Z,4.79
2022-11-22T06:11:48.066Z,4.81
2022-11-22T06:14:16.966Z,4.79
2022-11-22T06:16:45.942Z,4.88
2022-11-22T06:19:15.867Z,5.00
2022-11-22T06:21:44.739Z,4.84
2022-11-22T06:24:13.711Z,4.77
2022-11-22T06:26:43.994Z,4.70
2022-11-22T06:29:14.204Z,4.73
2022-11-22T06:31:43.493Z,4.82
2022-11-22T06:34:14.798Z,4.88
2022-11-22T06:36:43.834Z,4.73
2022-11-22T06:39:13.276Z,4.71
2022-11-22T06:41:43.703Z,4.71
2022-11-22T06:44:13.212Z,4.64
2022-11-22T06:46:42.052Z,4.65
2022-11-22T06:49:11.948Z,4.61
2022-11-22T06:51:40.903Z,4.67
2022-11-22T06:54:12.457Z,4.73
2022-11-22T06:56:43.454Z,4.69
2022-11-22T06:59:12.419Z,4.61
2022-11-22T07:01:41.385Z,4.65
2022-11-22T07:04:10.328Z,4.63
2022-11-22T07:06:40.021Z,4.55
2022-11-22T07:09:09.700Z,4.49
2022-11-22T07:11:38.743Z,4.47
2022-11-22T07:14:09.685Z,4.52
2022-11-22T07:16:38.869Z,4.56
2022-11-22T07:19:07.994Z,4.86
2022-11-22T07:21:38.211Z,4.70
2022-11-22T07:24:08.089Z,4.98
2022-11-22T07:26:36.989Z,4.98
2022-11-22T07:29:05.924Z,4.71
2022-11-22T07:31:36.704Z,4.82
2022-11-22T07:34:08.468Z,4.82
2022-11-22T07:36:38.886Z,4.74
2022-11-22T07:39:07.816Z,4.89
2022-11-22T07:41:37.303Z,4.87
2022-11-22T07:44:06.734Z,4.86
2022-11-22T07:46:37.126Z,4.69
2022-11-22T07:49:06.590Z,4.60
2022-11-22T07:51:35.737Z,4.75
2022-11-22T07:54:06.197Z,4.68
2022-11-22T07:56:36.150Z,4.65
2022-11-22T07:59:05.149Z,4.69
2022-11-22T08:01:34.172Z,4.66
2022-11-22T08:04:12.953Z,4.63
2022-11-22T08:06:41.857Z,4.72
2022-11-22T08:09:11.920Z,4.75
2022-11-22T08:11:40.890Z,4.61
2022-11-22T08:14:10.902Z,4.58
2022-11-22T08:16:40.841Z,4.93
2022-11-22T08:19:16.210Z,4.89
2022-11-22T08:21:45.142Z,4.98
2022-11-22T08:24:14.417Z,4.83
2022-11-22T08:26:43.826Z,5.08
2022-11-22T08:29:14.491Z,4.76
2022-11-22T08:31:43.644Z,4.72
2022-11-22T08:34:14.089Z,4.98
2022-11-22T08:36:42.965Z,5.15
2022-11-22T08:39:11.865Z,5.06
2022-11-22T08:41:40.726Z,4.99
2022-11-22T08:44:09.652Z,4.89
2022-11-22T08:46:38.642Z,5.01
2022-11-22T08:49:07.749Z,5.08
2022-11-22T08:51:38.034Z,5.08
2022-11-22T08:54:06.918Z,5.03
2022-11-22T08:56:35.858Z,5.14
2022-11-22T08:59:04.824Z,5.07
2022-11-22T09:04:19.742Z,5.22
2022-11-22T09:09:38.962Z,5.40
2022-11-22T09:12:10.970Z,5.45
2022-11-22T09:14:40.814Z,5.28
2022-11-22T09:17:14.590Z,5.20
2022-11-22T09:19:46.409Z,5.16
2022-11-22T09:22:16.789Z,5.26
2022-11-22T09:24:48.379Z,5.34
2022-11-22T09:27:17.303Z,5.33
2022-11-22T09:29:50.230Z,5.48
2022-11-22T09:32:20.082Z,5.49
2022-11-22T09:34:51.130Z,5.44
2022-11-22T09:37:21.696Z,5.74
2022-11-22T09:39:50.640Z,5.41
2022-11-22T09:42:32.371Z,5.55
2022-11-22T09:45:22.158Z,5.44
2022-11-22T09:47:56.780Z,5.52
2022-11-22T09:50:27.945Z,5.50
2022-11-22T09:53:03.521Z,5.48
2022-11-22T09:55:35.214Z,5.78
2022-11-22T09:58:07.783Z,5.73
2022-11-22T10:00:36.802Z,5.75
2022-11-22T10:03:08.605Z,5.94
2022-11-22T10:05:50.614Z,5.79
2022-11-22T10:08:29.560Z,6.03
2022-11-22T10:10:58.424Z,5.84
2022-11-22T10:13:31.523Z,5.97
2022-11-22T10:16:02.058Z,6.00
2022-11-22T10:18:36.623Z,6.05
2022-11-22T10:21:08.721Z,6.22
2022-11-22T10:23:39.138Z,6.18
2022-11-22T10:26:13.466Z,6.07
2022-11-22T10:28:44.902Z,5.96
2022-11-22T10:31:16.956Z,5.99
2022-11-22T10:33:54.515Z,6.00
2022-11-22T10:36:29.078Z,6.13
2022-11-22T10:39:08.931Z,6.07
2022-11-22T10:41:44.693Z,5.96
2022-11-22T10:44:19.943Z,6.11
2022-11-22T10:46:56.680Z,6.16
2022-11-22T10:49:45.283Z,6.36
2022-11-22T10:52:19.005Z,6.50
2022-11-22T10:54:52.957Z,6.62
2022-11-22T10:57:27.475Z,6.45
2022-11-22T11:00:18.171Z,6.52
2022-11-22T11:02:57.907Z,6.22
2022-11-22T11:05:30.517Z,6.41
2022-11-22T11:08:22.035Z,6.32
2022-11-22T11:10:57.133Z,6.34
2022-11-22T11:13:27.148Z,6.43
2022-11-22T11:15:57.080Z,6.33
2022-11-22T11:18:28.995Z,6.29
2022-11-22T11:20:57.891Z,6.45
2022-11-22T11:23:27.463Z,6.44
2022-11-22T11:25:57.790Z,6.37
2022-11-22T11:28:28.363Z,6.59
2022-11-22T11:31:01.997Z,6.76
2022-11-22T11:33:31.987Z,6.83
2022-11-22T11:36:05.348Z,6.83
2022-11-22T11:38:36.647Z,6.78
2022-11-22T11:41:28.477Z,6.75
2022-11-22T11:43:57.978Z,6.72
2022-11-22T11:46:28.226Z,6.74
2022-11-22T11:48:58.514Z,6.89
2022-11-22T11:51:31.631Z,6.81
2022-11-22T11:54:02.550Z,6.98
2022-11-22T11:56:37.522Z,6.72
2022-11-22T11:59:09.886Z,6.74
2022-11-22T12:01:39.371Z,6.83
2022-11-22T12:04:08.537Z,6.70
2022-11-22T12:07:00.101Z,6.69
2022-11-22T12:09:35.106Z,6.69
2022-11-22T12:12:14.972Z,6.79
2022-11-22T12:15:09.609Z,6.72
2022-11-22T12:17:33.417Z,6.80
2022-11-22T12:20:05.219Z,6.55
2022-11-22T12:22:53.438Z,6.68
2022-11-22T12:25:32.539Z,6.78
2022-11-22T12:28:20.665Z,6.67
2022-11-22T12:30:51.360Z,6.67
2022-11-22T12:33:21.471Z,6.91
2022-11-22T12:35:50.631Z,6.65
2022-11-22T12:38:20.445Z,6.59
2022-11-22T12:40:49.943Z,7.03
2022-11-22T12:43:23.307Z,6.91
2022-11-22T12:45:54.414Z,6.80
2022-11-22T12:48:26.125Z,6.73
2022-11-22T12:50:58.732Z,6.78
2022-11-22T12:53:33.422Z,6.74
2022-11-22T12:56:04.358Z,6.67
2022-11-22T12:58:39.112Z,6.66
2022-11-22T13:01:12.063Z,6.80
2022-11-22T13:03:43.995Z,6.80
2022-11-22T13:06:13.895Z,6.72
2022-11-22T13:08:50.114Z,6.93
2022-11-22T13:11:25.038Z,6.90
2022-11-22T13:13:56.191Z,6.80
2022-11-22T13:16:25.534Z,6.87
2022-11-22T13:19:02.318Z,6.77
2022-11-22T13:21:46.664Z,6.91
2022-11-22T13:24:24.618Z,6.82
2022-11-22T13:26:59.123Z,6.93
2022-11-22T13:29:47.908Z,7.04
2022-11-22T13:32:34.393Z,6.82
2022-11-22T13:35:29.654Z,6.99
2022-11-22T13:38:02.899Z,6.99
2022-11-22T13:40:36.874Z,6.96
2022-11-22T13:43:33.544Z,6.98
2022-11-22T13:46:04.719Z,6.82
2022-11-22T13:49:02.871Z,7.04
2022-11-22T13:51:56.226Z,6.81
2022-11-22T13:54:54.387Z,6.96
2022-11-22T13:57:28.458Z,7.04
2022-11-22T14:00:30.840Z,7.13
2022-11-22T14:03:22.023Z,7.19
2022-11-22T14:05:51.512Z,6.96
2022-11-22T14:08:30.594Z,6.91
2022-11-22T14:11:12.437Z,6.98
2022-11-22T14:13:48.134Z,7.27
2022-11-22T14:16:25.991Z,6.92
2022-11-22T14:19:00.766Z,6.85
2022-11-22T14:21:44.615Z,6.73
2022-11-22T14:24:20.280Z,6.84
2022-11-22T14:26:58.606Z,6.80
2022-11-22T14:29:53.717Z,6.92
2022-11-22T14:32:23.317Z,6.75
2022-11-22T14:35:18.535Z,6.86
2022-11-22T14:37:49.157Z,6.78
2022-11-22T14:40:31.909Z,6.94
2022-11-22T14:43:07.742Z,6.82
2022-11-22T14:45:42.995Z,7.03
2022-11-22T14:48:17.561Z,6.74
2022-11-22T14:50:53.744Z,7.07
2022-11-22T14:53:27.963Z,6.90
2022-11-22T14:55:59.618Z,7.10
2022-11-22T14:58:30.673Z,6.78
2022-11-22T15:01:23.178Z,6.90
2022-11-22T15:09:11.236Z,6.90
2022-11-22T15:09:14.436Z,6.99
2022-11-22T15:10:35.286Z,6.88
2022-11-22T15:13:15.355Z,6.81
2022-11-22T15:59:09.423Z,6.62
2022-11-22T16:01:40.753Z,6.54
2022-11-22T16:04:21.231Z,6.49
2022-11-22T16:06:51.894Z,6.49
2022-11-22T16:09:25.472Z,6.45
2022-11-22T16:12:01.559Z,6.73
2022-11-22T16:14:44.948Z,6.62
2022-11-22T16:17:24.306Z,6.58
2022-11-22T16:19:53.328Z,6.65
2022-11-22T16:22:30.963Z,6.46
2022-11-22T16:25:22.598Z,6.83
2022-11-22T16:27:51.646Z,6.53
2022-11-22T16:30:23.827Z,6.37
2022-11-22T16:32:55.832Z,6.48
2022-11-22T16:35:31.968Z,6.76
2022-11-22T16:38:01.967Z,6.56
2022-11-22T16:40:31.348Z,6.41
2022-11-22T16:43:03.183Z,6.45
2022-11-22T16:45:37.402Z,6.46
2022-11-22T16:48:30.662Z,6.47
2022-11-22T16:51:01.115Z,6.56
2022-11-22T16:53:38.234Z,6.43
2022-11-22T16:56:09.155Z,6.51
2022-11-22T16:58:38.020Z,6.54
2022-11-22T17:01:14.394Z,6.56
2022-11-22T17:03:43.315Z,6.45
2022-11-22T17:06:18.973Z,6.45
2022-11-22T17:08:48.911Z,6.45
2022-11-22T17:11:18.821Z,6.47
2022-11-22T17:13:47.881Z,6.61
2022-11-22T17:16:19.287Z,6.75
2022-11-22T17:18:50.671Z,6.34
2022-11-22T17:21:24.372Z,6.48
2022-11-22T17:23:53.440Z,6.51
2022-11-22T17:26:22.901Z,6.52
2022-11-22T17:28:52.334Z,6.27
2022-11-22T17:31:28.295Z,6.41
2022-11-22T17:34:01.005Z,6.42
2022-11-22T17:36:31.049Z,6.44
2022-11-22T17:39:06.627Z,6.46
2022-11-22T17:41:38.425Z,6.37
2022-11-22T17:44:09.980Z,6.34
2022-11-22T17:46:44.550Z,6.28
2022-11-22T17:49:16.161Z,6.35
2022-11-22T17:51:51.056Z,6.41
2022-11-22T17:54:23.312Z,6.41
2022-11-22T17:56:52.712Z,6.45
2022-11-22T17:59:24.191Z,6.64
2022-11-22T18:02:05.322Z,6.64
2022-11-22T18:04:44.415Z,6.44
2022-11-22T18:07:23.867Z,6.41
2022-11-22T18:09:57.077Z,6.25
2022-11-22T18:12:29.909Z,6.22
2022-11-22T18:15:03.277Z,6.30
2022-11-22T18:17:50.649Z,6.34
2022-11-22T18:20:22.885Z,6.32
2022-11-22T18:23:01.546Z,6.42
2022-11-22T18:25:31.530Z,6.53
2022-11-22T18:28:08.546Z,6.44
2022-11-22T18:30:38.105Z,6.49
2022-11-22T18:33:11.768Z,6.43
2022-11-22T18:35:45.784Z,6.37
2022-11-22T18:38:24.987Z,6.41
2022-11-22T18:40:54.927Z,6.41
2022-11-22T18:43:23.848Z,6.37
2022-11-22T18:46:01.505Z,6.35
2022-11-22T18:48:32.874Z,6.42
2022-11-22T18:51:14.283Z,6.47
2022-11-22T18:53:43.329Z,6.54
2022-11-22T18:56:17.286Z,6.48
2022-11-22T18:58:53.082Z,6.56
2022-11-22T19:01:23.448Z,6.68
2022-11-22T19:03:54.297Z,6.61
2022-11-22T19:06:24.144Z,6.62
2022-11-22T19:08:54.206Z,6.65
2022-11-22T19:11:26.207Z,6.73
2022-11-22T19:14:00.164Z,6.66
2022-11-22T19:16:30.966Z,6.61
2022-11-22T19:19:01.440Z,6.61
2022-11-22T19:21:31.065Z,6.66
2022-11-22T19:24:03.385Z,6.58
2022-11-22T19:26:35.108Z,6.60
2022-11-22T19:29:05.408Z,6.60
2022-11-22T19:31:34.679Z,6.64
2022-11-22T19:34:05.201Z,6.61
2022-11-22T19:36:48.358Z,6.61
2022-11-22T19:39:21.177Z,6.61
2022-11-22T19:41:55.072Z,6.60
2022-11-22T19:44:27.738Z,6.65
2022-11-22T19:47:03.249Z,6.65
2022-11-22T19:49:34.605Z,6.58
2022-11-22T19:52:06.939Z,6.68
2022-11-22T19:54:36.534Z,6.74
2022-11-22T19:57:08.829Z,6.85
2022-11-22T19:59:37.977Z,6.73
2022-11-22T20:02:07.300Z,6.59
2022-11-22T20:04:40.682Z,6.69
2022-11-22T20:07:09.766Z,6.74
2022-11-22T20:09:39.364Z,6.61
2022-11-22T20:12:11.062Z,6.70
2022-11-22T20:14:40.255Z,6.91
2022-11-22T20:17:11.763Z,6.74
2022-11-22T20:19:43.275Z,6.83
2022-11-22T20:22:13.236Z,6.80
2022-11-22T20:24:44.113Z,6.71
2022-11-22T20:27:14.464Z,6.75
2022-11-22T20:29:46.711Z,6.72
2022-11-22T20:32:20.063Z,6.71
2022-11-22T20:34:51.481Z,6.76
2022-11-22T20:37:22.801Z,6.79
2022-11-22T20:39:51.866Z,6.73
2022-11-22T20:42:36.443Z,6.79
2022-11-22T20:45:09.192Z,6.73
2022-11-22T20:47:40.767Z,6.76
2022-11-22T20:50:15.330Z,6.75
2022-11-22T20:52:54.779Z,6.83
2022-11-22T20:55:30.552Z,6.82
2022-11-22T20:57:59.548Z,6.84
2022-11-22T21:00:28.930Z,6.75
2022-11-22T21:02:58.533Z,6.90
2022-11-22T21:05:29.249Z,6.78
2022-11-22T21:08:03.874Z,6.80
2022-11-22T21:10:35.283Z,6.79
2022-11-22T21:13:16.161Z,6.89
2022-11-22T21:15:45.171Z,6.77
2022-11-22T21:18:25.374Z,6.83
2022-11-22T21:21:04.999Z,6.89
2022-11-22T21:23:37.847Z,6.93
2022-11-22T21:26:11.505Z,6.92
2022-11-22T21:28:45.557Z,7.04
2022-11-22T21:31:14.640Z,6.96
2022-11-22T21:33:47.122Z,7.11
2022-11-22T21:36:18.145Z,6.94
2022-11-22T21:38:48.159Z,6.88
2022-11-22T21:44:08.342Z,6.81
2022-11-22T21:46:38.308Z,6.90
2022-11-22T21:49:07.326Z,6.86
2022-11-22T21:51:38.891Z,6.97
2022-11-22T21:54:08.297Z,6.81
2022-11-22T21:56:38.817Z,6.88
2022-11-22T21:59:08.333Z,7.05
2022-11-22T22:01:39.507Z,7.00
2022-11-22T22:04:08.444Z,6.97
2022-11-22T22:06:42.326Z,6.98
2022-11-22T22:09:14.473Z,6.94
2022-11-22T22:11:45.906Z,7.15
2022-11-22T22:14:14.910Z,6.98
2022-11-22T22:16:43.803Z,7.14
2022-11-22T22:19:12.727Z,6.96
2022-11-22T22:21:46.069Z,7.18
2022-11-22T22:24:15.371Z,6.98
2022-11-22T22:26:44.256Z,7.06
2022-11-22T22:29:13.972Z,7.09
2022-11-22T22:31:43.271Z,7.07
2022-11-22T22:34:12.288Z,6.99
2022-11-22T22:36:43.376Z,6.95
2022-11-22T22:39:12.588Z,7.04
2022-11-22T22:41:41.505Z,7.04
2022-11-22T22:44:10.711Z,7.06
2022-11-22T22:46:40.873Z,6.94
2022-11-22T22:49:10.033Z,6.96
2022-11-22T22:51:38.887Z,6.91
2022-11-22T22:54:11.108Z,7.04
2022-11-22T22:56:46.145Z,6.99
2022-11-22T22:59:15.849Z,6.96
2022-11-22T23:01:44.859Z,6.85
2022-11-22T23:04:13.759Z,6.89
2022-11-22T23:06:42.958Z,6.80
2022-11-22T23:09:13.603Z,6.96
2022-11-22T23:11:56.107Z,6.98
2022-11-22T23:14:27.096Z,7.02
2022-11-22T23:16:57.973Z,6.90
2022-11-22T23:19:27.744Z,6.82
2022-11-22T23:21:56.709Z,6.78
2022-11-22T23:24:31.605Z,7.06
2022-11-22T23:27:00.522Z,6.95
2022-11-22T23:29:30.801Z,6.87
2022-11-22T23:32:00.142Z,6.84
2022-11-22T23:34:29.003Z,6.98
2022-11-22T23:37:01.079Z,6.94
2022-11-22T23:39:31.585Z,6.94
2022-11-22T23:42:00.744Z,6.88
2022-11-22T23:44:29.624Z,6.86
2022-11-22T23:46:59.730Z,6.88
2022-11-22T23:49:31.732Z,6.87
2022-11-22T23:52:01.156Z,6.89
2022-11-22T23:54:31.463Z,6.82
2022-11-22T23:57:00.371Z,6.90
2022-11-22T23:59:29.533Z,6.88
